createdAt,value
2019-03-13T00:00:53.430Z,8.77
2019-03-13T00:03:21.270Z,9.40
2019-03-13T00:05:48.855Z,8.67
2019-03-13T00:08:16.627Z,8.37
2019-03-13T00:10:44.203Z,8.47
2019-03-13T00:13:11.851Z,8.73
2019-03-13T00:15:39.424Z,7.70
2019-03-13T00:18:07.196Z,7.87
2019-03-13T00:20:34.807Z,8.00
2019-03-13T00:23:02.391Z,7.90
2019-03-13T00:25:30.041Z,8.13
2019-03-13T00:27:57.646Z,7.47
2019-03-13T00:30:25.287Z,8.10
2019-03-13T00:32:52.883Z,7.73
2019-03-13T00:35:20.498Z,7.90
2019-03-13T00:37:52.789Z,7.53
2019-03-13T00:40:20.488Z,7.10
2019-03-13T00:42:48.093Z,6.50
2019-03-13T00:45:15.888Z,6.60
2019-03-13T00:47:43.496Z,6.03
2019-03-13T00:50:21.262Z,6.73
2019-03-13T00:52:48.857Z,6.17
2019-03-13T00:55:16.475Z,5.90
2019-03-13T00:57:44.076Z,5.63
2019-03-13T01:00:13.504Z,5.77
2019-03-13T01:02:42.981Z,5.30
2019-03-13T01:05:30.112Z,5.50
2019-03-13T01:07:57.677Z,5.40
2019-03-13T01:10:25.302Z,4.83
2019-03-13T01:12:52.878Z,5.03
2019-03-13T01:15:20.489Z,4.60
2019-03-13T01:17:48.099Z,4.10
2019-03-13T01:20:20.451Z,5.60
2019-03-13T01:22:48.010Z,5.67
2019-03-13T01:25:15.636Z,5.53
2019-03-13T01:27:43.216Z,6.27
2019-03-13T01:30:11.196Z,6.37
2019-03-13T01:33:01.244Z,5.40
2019-03-13T01:35:39.080Z,4.70
2019-03-13T01:38:06.675Z,4.37
2019-03-13T01:40:34.324Z,4.53
2019-03-13T01:43:01.898Z,4.83
2019-03-13T01:45:29.547Z,4.23
2019-03-13T01:47:57.137Z,3.90
2019-03-13T01:50:24.761Z,3.63
2019-03-13T01:52:52.343Z,3.70
2019-03-13T01:55:19.994Z,3.27
2019-03-13T01:57:47.591Z,4.10
2019-03-13T02:00:15.657Z,4.60
2019-03-13T02:02:43.268Z,3.20
2019-03-13T02:05:10.891Z,4.60
2019-03-13T02:07:38.514Z,3.33
2019-03-13T02:10:07.413Z,3.40
2019-03-13T02:12:35.012Z,3.97
2019-03-13T02:15:02.587Z,3.33
2019-03-13T02:17:30.199Z,3.53
2019-03-13T02:19:57.822Z,3.40
2019-03-13T02:22:25.456Z,3.30
2019-03-13T02:24:54.325Z,3.30
2019-03-13T02:27:22.007Z,3.10
2019-03-13T02:29:49.590Z,3.10
2019-03-13T02:32:17.206Z,2.83
2019-03-13T02:34:44.795Z,2.80
2019-03-13T02:37:12.378Z,3.10
2019-03-13T02:39:39.981Z,2.60
2019-03-13T02:42:07.597Z,3.40
2019-03-13T02:44:35.206Z,3.13
2019-03-13T02:47:02.807Z,2.97
2019-03-13T02:49:30.429Z,3.13
2019-03-13T02:51:58.013Z,3.40
2019-03-13T02:54:25.597Z,5.17
2019-03-13T02:56:53.195Z,4.53
2019-03-13T02:59:20.792Z,5.23
2019-03-13T03:02:19.140Z,5.13
2019-03-13T03:04:46.784Z,4.07
2019-03-13T03:07:14.376Z,5.23
2019-03-13T03:09:41.992Z,5.13
2019-03-13T03:12:09.648Z,4.87
2019-03-13T03:14:37.216Z,4.17
2019-03-13T03:17:04.860Z,4.13
2019-03-13T03:19:32.481Z,4.27
2019-03-13T03:22:00.106Z,3.43
2019-03-13T03:24:27.733Z,4.00
2019-03-13T03:26:55.335Z,3.53
2019-03-13T03:29:22.903Z,3.07
2019-03-13T03:31:50.506Z,4.07
2019-03-13T03:34:18.100Z,3.87
2019-03-13T03:36:45.680Z,3.50
2019-03-13T03:39:13.298Z,3.73
2019-03-13T03:41:40.909Z,4.13
2019-03-13T03:44:08.535Z,3.67
2019-03-13T03:46:36.145Z,4.37
2019-03-13T03:49:03.756Z,2.90
2019-03-13T03:51:31.338Z,3.33
2019-03-13T03:53:58.993Z,2.50
2019-03-13T03:56:26.731Z,2.27
2019-03-13T03:58:54.378Z,2.93
2019-03-13T04:01:21.970Z,3.00
2019-03-13T04:03:49.618Z,2.33
2019-03-13T04:06:17.560Z,2.90
2019-03-13T04:08:49.832Z,2.67
2019-03-13T04:11:17.411Z,2.70
2019-03-13T04:13:45.336Z,2.87
2019-03-13T04:16:13.238Z,2.43
2019-03-13T04:18:40.849Z,2.87
2019-03-13T04:21:08.447Z,2.43
2019-03-13T04:23:36.053Z,2.90
2019-03-13T04:26:03.645Z,2.80
2019-03-13T04:28:31.248Z,2.90
2019-03-13T04:30:58.825Z,2.77
2019-03-13T04:33:28.236Z,2.87
2019-03-13T04:35:55.853Z,3.90
2019-03-13T04:38:23.450Z,2.30
2019-03-13T04:40:51.095Z,2.70
2019-03-13T04:43:18.711Z,2.83
2019-03-13T04:45:46.303Z,3.30
2019-03-13T04:48:13.919Z,3.13
2019-03-13T04:50:43.839Z,2.90
2019-03-13T04:53:11.392Z,3.67
2019-03-13T04:55:39.017Z,3.33
2019-03-13T04:58:06.594Z,3.33
2019-03-13T05:00:34.204Z,3.90
2019-03-13T05:03:01.794Z,4.50
2019-03-13T05:05:42.526Z,4.27
2019-03-13T05:08:12.435Z,3.43
2019-03-13T05:10:40.381Z,3.10
2019-03-13T05:13:08.066Z,3.50
2019-03-13T05:15:35.871Z,4.47
2019-03-13T05:18:03.461Z,4.90
2019-03-13T05:20:31.059Z,4.37
2019-03-13T05:22:58.676Z,3.70
2019-03-13T05:25:26.277Z,4.63
2019-03-13T05:27:53.864Z,5.00
2019-03-13T05:30:21.470Z,4.40
2019-03-13T05:32:56.057Z,4.87
2019-03-13T05:35:23.728Z,3.10
2019-03-13T05:37:51.299Z,4.87
2019-03-13T05:40:18.936Z,4.47
2019-03-13T05:42:46.527Z,5.40
2019-03-13T05:45:14.166Z,4.20
2019-03-13T05:47:41.769Z,4.87
2019-03-13T05:50:09.400Z,4.57
2019-03-13T05:52:37.080Z,4.80
2019-03-13T05:55:04.705Z,4.30
2019-03-13T05:57:32.274Z,4.57
2019-03-13T05:59:59.858Z,4.17
2019-03-13T06:02:27.463Z,5.90
2019-03-13T06:04:55.079Z,5.13
2019-03-13T06:07:22.710Z,4.37
2019-03-13T06:09:50.331Z,5.23
2019-03-13T06:12:17.940Z,4.70
2019-03-13T06:14:46.126Z,5.10
2019-03-13T06:17:13.737Z,5.03
2019-03-13T06:19:41.322Z,5.57
2019-03-13T06:22:08.940Z,4.67
2019-03-13T06:24:36.532Z,5.07
2019-03-13T06:27:04.168Z,3.70
2019-03-13T06:29:32.010Z,4.57
2019-03-13T06:31:59.662Z,4.13
2019-03-13T06:34:27.245Z,4.03
2019-03-13T06:36:54.844Z,3.73
2019-03-13T06:39:22.430Z,4.47
2019-03-13T06:41:50.046Z,4.00
2019-03-13T06:44:17.878Z,4.33
2019-03-13T06:46:45.521Z,5.43
2019-03-13T06:49:13.212Z,5.03
2019-03-13T06:51:40.820Z,5.23
2019-03-13T06:54:08.418Z,4.00
2019-03-13T06:56:37.301Z,4.37
2019-03-13T06:59:27.148Z,4.67
2019-03-13T07:02:13.147Z,5.23
2019-03-13T07:04:49.487Z,5.47
2019-03-13T07:07:48.671Z,6.20
2019-03-13T07:10:34.267Z,4.70
2019-03-13T07:13:16.890Z,4.40
2019-03-13T07:16:09.791Z,4.73
2019-03-13T07:18:45.202Z,6.13
2019-03-13T07:21:32.343Z,5.07
2019-03-13T07:24:25.614Z,5.73
2019-03-13T07:27:01.804Z,5.80
2019-03-13T07:29:52.143Z,5.80
2019-03-13T07:32:31.071Z,3.60
2019-03-13T07:35:17.044Z,4.57
2019-03-13T07:38:03.135Z,4.00
2019-03-13T07:41:08.304Z,3.23
2019-03-13T07:44:01.496Z,4.10
2019-03-13T07:46:51.624Z,4.13
2019-03-13T07:49:33.067Z,3.50
2019-03-13T07:52:23.241Z,4.80
2019-03-13T07:55:08.944Z,3.93
2019-03-13T07:58:08.040Z,3.57
2019-03-13T08:01:01.350Z,4.20
2019-03-13T08:03:43.227Z,3.73
2019-03-13T08:06:34.498Z,3.80
2019-03-13T08:09:25.063Z,2.87
2019-03-13T08:12:02.926Z,3.60
2019-03-13T08:14:41.213Z,4.07
2019-03-13T08:17:22.606Z,3.87
2019-03-13T08:20:19.057Z,4.87
2019-03-13T08:23:01.755Z,4.33
2019-03-13T08:25:49.089Z,4.27
2019-03-13T08:28:39.347Z,5.40
2019-03-13T08:31:19.828Z,5.37
2019-03-13T08:34:06.306Z,3.30
2019-03-13T08:36:53.546Z,2.67
2019-03-13T08:39:31.218Z,3.63
2019-03-13T08:42:16.748Z,3.70
2019-03-13T08:45:16.206Z,4.60
2019-03-13T08:48:03.677Z,6.10
2019-03-13T08:50:56.556Z,5.90
2019-03-13T08:53:49.746Z,5.37
2019-03-13T08:56:42.834Z,4.77
2019-03-13T08:59:32.533Z,5.57
2019-03-13T09:02:33.034Z,4.20
2019-03-13T09:05:07.633Z,4.77
2019-03-13T09:07:57.677Z,3.63
2019-03-13T09:10:54.195Z,3.20
2019-03-13T09:13:28.625Z,4.63
2019-03-13T09:16:24.988Z,2.57
2019-03-13T09:19:12.373Z,3.70
2019-03-13T09:22:04.599Z,3.67
2019-03-13T09:24:50.273Z,3.63
2019-03-13T09:27:52.498Z,4.07
2019-03-13T09:30:39.665Z,4.10
2019-03-13T09:33:32.687Z,3.60
2019-03-13T09:36:12.686Z,4.97
2019-03-13T09:38:58.625Z,3.30
2019-03-13T09:41:40.008Z,3.97
2019-03-13T09:44:32.644Z,3.63
2019-03-13T09:47:18.634Z,3.50
2019-03-13T09:49:58.761Z,3.10
2019-03-13T09:52:45.878Z,3.37
2019-03-13T09:55:36.000Z,2.60
2019-03-13T09:58:22.742Z,2.90
2019-03-13T10:00:57.422Z,4.07
2019-03-13T10:03:52.264Z,4.10
2019-03-13T10:06:38.259Z,3.40
2019-03-13T10:09:42.340Z,4.20
2019-03-13T10:12:16.061Z,3.13
2019-03-13T10:15:12.213Z,3.60
2019-03-13T10:17:52.347Z,3.00
2019-03-13T10:20:28.837Z,3.77
2019-03-13T10:23:15.989Z,2.87
2019-03-13T10:26:00.098Z,3.17
2019-03-13T10:28:52.357Z,3.30
2019-03-13T10:31:39.470Z,3.13
2019-03-13T10:34:23.310Z,3.63
2019-03-13T10:37:08.950Z,3.70
2019-03-13T10:40:04.900Z,2.70
2019-03-13T10:42:48.353Z,3.50
2019-03-13T10:45:41.638Z,3.10
2019-03-13T10:48:17.770Z,2.57
2019-03-13T10:51:13.801Z,2.60
2019-03-13T10:54:03.932Z,3.17
2019-03-13T10:56:41.398Z,2.27
2019-03-13T10:59:24.067Z,3.00
2019-03-13T11:02:14.065Z,2.87
2019-03-13T11:04:59.946Z,3.20
2019-03-13T11:07:49.862Z,2.53
2019-03-13T11:10:42.881Z,2.43
2019-03-13T11:13:18.500Z,2.93
2019-03-13T11:16:05.659Z,3.13
2019-03-13T11:18:48.404Z,3.00
2019-03-13T11:21:34.436Z,3.20
2019-03-13T11:24:17.055Z,3.30
2019-03-13T11:26:53.229Z,3.33
2019-03-13T11:29:32.385Z,3.10
2019-03-13T11:32:25.567Z,3.27
2019-03-13T11:35:00.937Z,3.43
2019-03-13T11:37:46.874Z,2.80
2019-03-13T11:40:39.826Z,2.10
2019-03-13T11:43:33.010Z,2.97
2019-03-13T11:46:35.498Z,3.40
2019-03-13T11:49:25.869Z,3.27
2019-03-13T11:52:28.649Z,3.20
2019-03-13T11:55:05.191Z,3.13
2019-03-13T11:57:55.293Z,4.20
2019-03-13T12:00:34.472Z,3.53
2019-03-13T12:03:30.632Z,4.03
2019-03-13T12:06:07.236Z,3.30
2019-03-13T12:08:47.994Z,3.13
2019-03-13T12:11:31.214Z,3.27
2019-03-13T12:14:24.585Z,3.30
2019-03-13T12:17:00.706Z,3.63
2019-03-13T12:19:51.092Z,3.50
2019-03-13T12:22:50.509Z,3.60
2019-03-13T12:25:36.319Z,3.00
2019-03-13T12:28:32.915Z,2.90
2019-03-13T12:31:29.099Z,3.27
2019-03-13T12:34:08.281Z,2.73
2019-03-13T12:36:54.056Z,2.43
2019-03-13T12:39:41.192Z,2.43
2019-03-13T12:42:27.204Z,2.60
2019-03-13T12:45:09.485Z,2.90
2019-03-13T12:47:59.302Z,2.57
2019-03-13T12:50:45.377Z,3.00
2019-03-13T12:53:31.958Z,3.17
2019-03-13T12:56:14.939Z,3.70
2019-03-13T12:59:02.208Z,3.43
2019-03-13T13:01:36.871Z,3.67
2019-03-13T13:04:26.793Z,4.00
2019-03-13T13:07:00.413Z,3.90
2019-03-13T13:09:46.296Z,4.00
2019-03-13T13:12:25.009Z,4.17
2019-03-13T13:15:21.572Z,4.97
2019-03-13T13:18:15.072Z,5.03
2019-03-13T13:20:43.014Z,3.90
2019-03-13T13:23:10.608Z,4.17
2019-03-13T13:25:38.233Z,3.50
2019-03-13T13:28:05.899Z,4.77
2019-03-13T13:30:33.659Z,4.87
2019-03-13T13:33:01.557Z,5.73
2019-03-13T13:35:29.627Z,6.67
2019-03-13T13:37:57.462Z,5.70
2019-03-13T13:40:25.358Z,4.43
2019-03-13T13:42:53.141Z,3.77
2019-03-13T13:45:40.542Z,3.97
2019-03-13T13:48:08.332Z,3.23
2019-03-13T13:50:36.179Z,4.27
2019-03-13T13:53:03.994Z,4.30
2019-03-13T13:55:31.856Z,5.30
2019-03-13T13:57:59.706Z,4.87
2019-03-13T14:00:27.351Z,4.50
2019-03-13T14:02:54.996Z,4.63
2019-03-13T14:05:22.603Z,4.70
2019-03-13T14:07:50.352Z,7.37
2019-03-13T14:10:18.680Z,7.30
2019-03-13T14:12:46.605Z,7.73
2019-03-13T14:15:14.465Z,6.50
2019-03-13T14:17:46.753Z,7.83
2019-03-13T14:20:14.362Z,9.20
2019-03-13T14:22:42.069Z,7.77
2019-03-13T14:25:09.914Z,8.73
2019-03-13T14:27:37.728Z,9.57
2019-03-13T14:30:06.119Z,9.33
2019-03-13T14:32:33.990Z,6.50
2019-03-13T14:35:02.025Z,6.50
2019-03-13T14:37:29.662Z,5.40
2019-03-13T14:39:57.241Z,4.93
2019-03-13T14:42:24.883Z,5.17
2019-03-13T14:44:52.474Z,3.30
2019-03-13T14:47:20.098Z,2.97
2019-03-13T14:49:47.705Z,3.70
2019-03-13T14:52:15.326Z,3.50
2019-03-13T14:54:42.895Z,2.40
2019-03-13T14:57:10.558Z,2.13
2019-03-13T14:59:38.200Z,2.80
2019-03-13T15:02:05.969Z,3.17
2019-03-13T15:04:35.393Z,3.30
2019-03-13T15:07:03.017Z,3.67
2019-03-13T15:09:30.668Z,4.20
2019-03-13T15:11:58.253Z,4.50
2019-03-13T15:14:25.902Z,4.83
2019-03-13T15:16:53.488Z,4.43
2019-03-13T15:19:21.111Z,3.27
2019-03-13T15:21:48.728Z,3.60
2019-03-13T15:24:16.355Z,3.93
2019-03-13T15:26:43.972Z,3.63
2019-03-13T15:29:16.558Z,5.10
2019-03-13T15:31:44.117Z,3.03
2019-03-13T15:34:11.725Z,3.10
2019-03-13T15:36:39.306Z,3.40
2019-03-13T15:39:07.781Z,3.13
2019-03-13T15:41:35.434Z,2.77
2019-03-13T15:44:03.025Z,3.57
2019-03-13T15:46:32.756Z,4.07
2019-03-13T15:49:00.073Z,3.27
2019-03-13T15:51:27.722Z,3.30
2019-03-13T15:53:55.368Z,3.67
2019-03-13T15:56:23.015Z,3.37
2019-03-13T15:58:50.669Z,3.00
2019-03-13T16:01:18.242Z,3.00
2019-03-13T16:03:45.862Z,3.10
2019-03-13T16:06:13.450Z,3.67
2019-03-13T16:08:41.074Z,3.07
2019-03-13T16:11:08.687Z,2.47
2019-03-13T16:13:36.313Z,2.63
2019-03-13T16:16:03.923Z,2.43
2019-03-13T16:18:31.544Z,2.50
2019-03-13T16:20:59.234Z,2.20
2019-03-13T16:23:26.826Z,2.17
2019-03-13T16:25:54.642Z,1.90
2019-03-13T16:28:22.301Z,3.20
2019-03-13T16:30:50.300Z,2.30
2019-03-13T16:33:28.522Z,2.43
2019-03-13T16:35:56.269Z,2.10
2019-03-13T16:38:23.939Z,2.13
2019-03-13T16:40:51.574Z,1.70
2019-03-13T16:43:19.199Z,2.50
2019-03-13T16:45:46.819Z,1.97
2019-03-13T16:48:14.478Z,2.20
2019-03-13T16:50:42.207Z,2.70
2019-03-13T16:53:09.789Z,2.60
2019-03-13T16:55:37.943Z,2.83
2019-03-13T16:58:05.494Z,2.50
2019-03-13T17:00:33.614Z,3.10
2019-03-13T17:03:01.353Z,3.03
2019-03-13T17:05:28.967Z,3.33
2019-03-13T17:07:56.570Z,2.93
2019-03-13T17:10:24.186Z,3.03
2019-03-13T17:12:51.799Z,3.00
2019-03-13T17:15:19.908Z,3.40
2019-03-13T17:17:48.772Z,3.50
2019-03-13T17:20:18.519Z,4.53
2019-03-13T17:22:46.416Z,6.50
2019-03-13T17:25:15.221Z,8.33
2019-03-13T17:27:43.243Z,7.37
2019-03-13T17:30:14.233Z,7.37
2019-03-13T17:32:41.842Z,7.17
2019-03-13T17:35:09.586Z,6.67
2019-03-13T17:37:37.187Z,5.97
2019-03-13T17:40:05.550Z,5.10
2019-03-13T17:42:33.217Z,5.43
2019-03-13T17:45:00.852Z,4.77
2019-03-13T17:47:28.515Z,4.93
2019-03-13T17:49:56.140Z,4.83
2019-03-13T17:52:23.737Z,4.67
2019-03-13T17:54:51.353Z,4.40
2019-03-13T17:57:18.931Z,5.33
2019-03-13T17:59:46.559Z,4.00
2019-03-13T18:02:14.185Z,4.60
2019-03-13T18:04:41.812Z,4.20
2019-03-13T18:07:09.467Z,4.43
2019-03-13T18:09:37.105Z,4.67
2019-03-13T18:12:04.728Z,4.93
2019-03-13T18:14:32.413Z,4.40
2019-03-13T18:17:00.300Z,4.90
2019-03-13T18:19:27.913Z,5.47
2019-03-13T18:21:55.532Z,5.60
2019-03-13T18:24:23.107Z,5.53
2019-03-13T18:26:50.780Z,5.53
2019-03-13T18:29:18.405Z,5.37
2019-03-13T18:31:46.120Z,5.23
2019-03-13T18:34:13.697Z,5.23
2019-03-13T18:36:50.441Z,4.50
2019-03-13T18:39:18.034Z,5.43
2019-03-13T18:41:45.765Z,5.50
2019-03-13T18:44:15.558Z,5.70
2019-03-13T18:46:43.209Z,5.87
2019-03-13T18:49:10.823Z,6.00
2019-03-13T18:51:38.475Z,5.80
2019-03-13T18:54:06.137Z,6.33
2019-03-13T18:56:34.588Z,6.27
2019-03-13T18:59:02.193Z,6.10
2019-03-13T19:01:29.802Z,5.87
2019-03-13T19:03:58.773Z,5.80
2019-03-13T19:06:26.439Z,5.60
2019-03-13T19:08:54.016Z,5.77
2019-03-13T19:11:21.630Z,6.00
2019-03-13T19:13:49.299Z,6.13
2019-03-13T19:16:16.924Z,6.07
2019-03-13T19:18:44.745Z,6.03
2019-03-13T19:21:12.394Z,5.50
2019-03-13T19:23:40.011Z,4.80
2019-03-13T19:26:08.203Z,5.57
2019-03-13T19:28:36.014Z,4.70
2019-03-13T19:31:03.633Z,5.40
2019-03-13T19:33:31.216Z,4.50
2019-03-13T19:35:58.866Z,5.63
2019-03-13T19:38:26.476Z,5.53
2019-03-13T19:40:54.151Z,5.13
2019-03-13T19:43:21.765Z,5.20
2019-03-13T19:45:49.856Z,5.37
2019-03-13T19:48:17.458Z,4.80
2019-03-13T19:50:45.083Z,5.27
2019-03-13T19:53:12.740Z,4.13
2019-03-13T19:55:40.358Z,4.23
2019-03-13T19:58:08.205Z,4.70
2019-03-13T20:00:36.141Z,4.93
2019-03-13T20:03:04.354Z,3.87
2019-03-13T20:05:44.157Z,3.60
2019-03-13T20:08:01.353Z,5.43
2019-03-13T20:10:29.064Z,4.20
2019-03-13T20:12:57.077Z,3.60
2019-03-13T20:15:24.744Z,3.83
2019-03-13T20:17:52.562Z,3.53
2019-03-13T20:20:20.670Z,3.63
2019-03-13T20:22:49.917Z,3.53
2019-03-13T20:25:18.051Z,3.27
2019-03-13T20:27:46.044Z,3.67
2019-03-13T20:30:15.393Z,3.63
2019-03-13T20:32:43.241Z,3.50
2019-03-13T20:35:11.223Z,3.53
2019-03-13T20:37:38.878Z,3.60
2019-03-13T20:40:08.029Z,3.23
2019-03-13T20:42:35.719Z,4.00
2019-03-13T20:45:03.862Z,3.27
2019-03-13T20:47:31.618Z,3.87
2019-03-13T20:49:59.198Z,4.50
2019-03-13T20:52:26.822Z,4.43
2019-03-13T20:54:54.398Z,3.73
2019-03-13T20:57:22.023Z,4.00
2019-03-13T20:59:49.664Z,3.30
2019-03-13T21:02:17.324Z,4.37
2019-03-13T21:04:44.895Z,3.63
2019-03-13T21:07:12.501Z,4.10
2019-03-13T21:09:40.090Z,3.70
2019-03-13T21:12:07.707Z,3.43
2019-03-13T21:14:36.148Z,4.40
2019-03-13T21:17:03.934Z,4.17
2019-03-13T21:19:31.559Z,4.83
2019-03-13T21:21:59.156Z,4.10
2019-03-13T21:24:27.146Z,3.77
2019-03-13T21:26:54.831Z,4.37
2019-03-13T21:29:22.410Z,3.97
2019-03-13T21:31:50.146Z,4.20
2019-03-13T21:34:17.754Z,3.83
2019-03-13T21:36:45.319Z,3.80
2019-03-13T21:39:12.917Z,4.63
2019-03-13T21:41:40.520Z,3.40
2019-03-13T21:44:08.154Z,3.60
2019-03-13T21:46:35.812Z,3.57
2019-03-13T21:49:03.433Z,4.17
2019-03-13T21:51:31.070Z,3.57
2019-03-13T21:53:58.749Z,3.13
2019-03-13T21:56:26.359Z,3.27
2019-03-13T21:58:53.999Z,3.13
2019-03-13T22:01:21.629Z,2.80
2019-03-13T22:03:49.219Z,2.90
2019-03-13T22:06:28.080Z,3.20
2019-03-13T22:08:46.255Z,3.40
2019-03-13T22:11:13.877Z,3.07
2019-03-13T22:13:41.503Z,3.07
2019-03-13T22:16:09.076Z,3.50
2019-03-13T22:18:36.730Z,3.10
2019-03-13T22:21:04.332Z,2.80
2019-03-13T22:23:31.973Z,3.20
2019-03-13T22:25:59.601Z,3.00
2019-03-13T22:28:27.206Z,2.87
2019-03-13T22:30:54.808Z,3.07
2019-03-13T22:33:22.488Z,3.30
2019-03-13T22:35:50.082Z,3.10
2019-03-13T22:38:17.697Z,2.90
2019-03-13T22:40:45.353Z,3.07
2019-03-13T22:43:12.993Z,2.90
2019-03-13T22:45:40.570Z,2.50
2019-03-13T22:48:08.167Z,3.23
2019-03-13T22:50:35.749Z,2.60
2019-03-13T22:53:03.368Z,2.03
2019-03-13T22:55:30.946Z,2.13
2019-03-13T22:58:01.322Z,1.67
2019-03-13T23:00:52.868Z,2.17
2019-03-13T23:03:21.264Z,2.00
2019-03-13T23:05:48.968Z,1.97
2019-03-13T23:08:16.682Z,2.37
2019-03-13T23:10:44.569Z,2.40
2019-03-13T23:13:12.177Z,2.93
2019-03-13T23:15:39.780Z,2.20
2019-03-13T23:18:07.365Z,2.60
2019-03-13T23:20:35.004Z,2.23
2019-03-13T23:23:02.678Z,2.20
2019-03-13T23:25:30.299Z,2.40
2019-03-13T23:27:58.310Z,2.53
2019-03-13T23:30:25.934Z,3.50
2019-03-13T23:32:53.512Z,2.90
2019-03-13T23:35:21.133Z,2.80
2019-03-13T23:37:48.859Z,2.30
2019-03-13T23:40:16.453Z,3.20
2019-03-13T23:42:44.064Z,2.40
2019-03-13T23:45:11.977Z,3.23
2019-03-13T23:47:39.600Z,2.40
2019-03-13T23:50:07.545Z,2.00
2019-03-13T23:52:35.250Z,2.50
2019-03-13T23:55:02.886Z,2.37
2019-03-13T23:57:30.482Z,2.70
2019-03-13T23:59:58.096Z,2.40
